sensor_id;sensor_type;location;lat;lon;timestamp;temperature;humidity
20345;DHT22;10330;48.816;9.278;2024-01-30T00:02:03;4.10;99.90
20345;DHT22;10330;48.816;9.278;2024-01-30T00:04:29;4.10;99.90
20345;DHT22;10330;48.816;9.278;2024-01-30T00:06:56;4.10;99.90
20345;DHT22;10330;48.816;9.278;2024-01-30T00:09:22;4.10;99.90
20345;DHT22;10330;48.816;9.278;2024-01-30T00:11:48;4.00;99.90
20345;DHT22;10330;48.816;9.278;2024-01-30T00:14:14;3.90;99.90
20345;DHT22;10330;48.816;9.278;2024-01-30T00:16:40;3.80;99.90
20345;DHT22;10330;48.816;9.278;2024-01-30T00:19:07;3.80;99.90
20345;DHT22;10330;48.816;9.278;2024-01-30T00:21:34;3.80;99.90
20345;DHT22;10330;48.816;9.278;2024-01-30T00:24:00;3.70;99.90
20345;DHT22;10330;48.816;9.278;2024-01-30T00:26:27;3.70;99.90
20345;DHT22;10330;48.816;9.278;2024-01-30T00:28:53;3.60;99.90
20345;DHT22;10330;48.816;9.278;2024-01-30T00:31:19;3.50;99.90
20345;DHT22;10330;48.816;9.278;2024-01-30T00:33:45;3.50;99.90
20345;DHT22;10330;48.816;9.278;2024-01-30T00:36:12;3.50;99.90
20345;DHT22;10330;48.816;9.278;2024-01-30T00:38:38;3.50;99.90
20345;DHT22;10330;48.816;9.278;2024-01-30T00:41:08;3.50;99.90
20345;DHT22;10330;48.816;9.278;2024-01-30T00:43:34;3.40;99.90
20345;DHT22;10330;48.816;9.278;2024-01-30T00:46:00;3.50;99.90
20345;DHT22;10330;48.816;9.278;2024-01-30T00:48:26;3.50;99.90
20345;DHT22;10330;48.816;9.278;2024-01-30T00:50:52;3.50;99.90
20345;DHT22;10330;48.816;9.278;2024-01-30T00:53:19;3.50;99.90
20345;DHT22;10330;48.816;9.278;2024-01-30T00:55:45;3.50;99.90
20345;DHT22;10330;48.816;9.278;2024-01-30T00:58:11;3.50;99.90
20345;DHT22;10330;48.816;9.278;2024-01-30T01:00:38;3.50;99.90
20345;DHT22;10330;48.816;9.278;2024-01-30T01:03:05;3.50;99.90
20345;DHT22;10330;48.816;9.278;2024-01-30T01:05:31;3.50;99.90
20345;DHT22;10330;48.816;9.278;2024-01-30T01:07:57;3.50;99.90
20345;DHT22;10330;48.816;9.278;2024-01-30T01:10:23;3.50;99.90
20345;DHT22;10330;48.816;9.278;2024-01-30T01:12:49;3.60;99.90
20345;DHT22;10330;48.816;9.278;2024-01-30T01:15:16;3.60;99.90
20345;DHT22;10330;48.816;9.278;2024-01-30T01:17:42;3.70;99.90
20345;DHT22;10330;48.816;9.278;2024-01-30T01:20:09;3.70;99.90
20345;DHT22;10330;48.816;9.278;2024-01-30T01:22:37;3.70;99.90
20345;DHT22;10330;48.816;9.278;2024-01-30T01:25:04;3.70;99.90
20345;DHT22;10330;48.816;9.278;2024-01-30T01:27:34;3.80;99.90
20345;DHT22;10330;48.816;9.278;2024-01-30T01:30:04;3.80;99.90
20345;DHT22;10330;48.816;9.278;2024-01-30T01:32:32;3.80;99.90
20345;DHT22;10330;48.816;9.278;2024-01-30T01:34:58;3.80;99.90
20345;DHT22;10330;48.816;9.278;2024-01-30T01:37:24;3.70;99.90
20345;DHT22;10330;48.816;9.278;2024-01-30T01:43:07;3.70;99.90
20345;DHT22;10330;48.816;9.278;2024-01-30T01:45:33;3.60;99.90
20345;DHT22;10330;48.816;9.278;2024-01-30T01:47:59;3.60;99.90
20345;DHT22;10330;48.816;9.278;2024-01-30T01:50:26;3.50;99.90
20345;DHT22;10330;48.816;9.278;2024-01-30T01:52:54;3.50;99.90
20345;DHT22;10330;48.816;9.278;2024-01-30T01:55:21;3.40;99.90
20345;DHT22;10330;48.816;9.278;2024-01-30T01:57:53;3.40;99.90
20345;DHT22;10330;48.816;9.278;2024-01-30T02:00:20;3.40;99.90
20345;DHT22;10330;48.816;9.278;2024-01-30T02:02:46;3.50;99.90
20345;DHT22;10330;48.816;9.278;2024-01-30T02:05:15;3.40;99.90
20345;DHT22;10330;48.816;9.278;2024-01-30T02:07:42;3.40;99.90
20345;DHT22;10330;48.816;9.278;2024-01-30T02:10:08;3.40;99.90
20345;DHT22;10330;48.816;9.278;2024-01-30T02:12:36;3.40;99.90
20345;DHT22;10330;48.816;9.278;2024-01-30T02:15:02;3.40;99.90
20345;DHT22;10330;48.816;9.278;2024-01-30T02:17:28;3.30;99.90
20345;DHT22;10330;48.816;9.278;2024-01-30T02:19:55;3.30;99.90
20345;DHT22;10330;48.816;9.278;2024-01-30T02:22:22;3.20;99.90
20345;DHT22;10330;48.816;9.278;2024-01-30T02:24:49;3.20;99.90
20345;DHT22;10330;48.816;9.278;2024-01-30T02:27:15;3.20;99.90
20345;DHT22;10330;48.816;9.278;2024-01-30T02:29:42;3.20;99.90
20345;DHT22;10330;48.816;9.278;2024-01-30T02:32:08;3.10;99.90
20345;DHT22;10330;48.816;9.278;2024-01-30T02:34:34;3.00;99.90
20345;DHT22;10330;48.816;9.278;2024-01-30T02:37:01;3.00;99.90
20345;DHT22;10330;48.816;9.278;2024-01-30T02:39:27;3.00;99.90
20345;DHT22;10330;48.816;9.278;2024-01-30T02:41:53;3.00;99.90
20345;DHT22;10330;48.816;9.278;2024-01-30T02:44:20;3.00;99.90
20345;DHT22;10330;48.816;9.278;2024-01-30T02:46:47;2.90;99.90
20345;DHT22;10330;48.816;9.278;2024-01-30T02:49:13;2.90;99.90
20345;DHT22;10330;48.816;9.278;2024-01-30T02:51:39;2.90;99.90
20345;DHT22;10330;48.816;9.278;2024-01-30T02:54:05;2.90;99.90
20345;DHT22;10330;48.816;9.278;2024-01-30T02:56:32;2.90;99.90
20345;DHT22;10330;48.816;9.278;2024-01-30T02:58:58;2.90;99.90
20345;DHT22;10330;48.816;9.278;2024-01-30T03:01:24;2.90;99.90
20345;DHT22;10330;48.816;9.278;2024-01-30T03:03:50;2.90;99.90
20345;DHT22;10330;48.816;9.278;2024-01-30T03:06:17;2.90;99.90
20345;DHT22;10330;48.816;9.278;2024-01-30T03:08:43;2.80;99.90
20345;DHT22;10330;48.816;9.278;2024-01-30T03:11:09;2.70;99.90
20345;DHT22;10330;48.816;9.278;2024-01-30T03:13:36;2.80;99.90
20345;DHT22;10330;48.816;9.278;2024-01-30T03:16:02;2.80;99.90
20345;DHT22;10330;48.816;9.278;2024-01-30T03:18:28;2.80;99.90
20345;DHT22;10330;48.816;9.278;2024-01-30T03:20:54;2.80;99.90
20345;DHT22;10330;48.816;9.278;2024-01-30T03:23:21;2.80;99.90
20345;DHT22;10330;48.816;9.278;2024-01-30T03:25:47;2.80;99.90
20345;DHT22;10330;48.816;9.278;2024-01-30T03:28:13;2.80;99.90
20345;DHT22;10330;48.816;9.278;2024-01-30T03:30:40;2.70;99.90
20345;DHT22;10330;48.816;9.278;2024-01-30T03:33:06;2.70;99.90
20345;DHT22;10330;48.816;9.278;2024-01-30T03:35:32;2.70;99.90
20345;DHT22;10330;48.816;9.278;2024-01-30T03:37:59;2.70;99.90
20345;DHT22;10330;48.816;9.278;2024-01-30T03:40:25;2.70;99.90
20345;DHT22;10330;48.816;9.278;2024-01-30T03:42:51;2.70;99.90
20345;DHT22;10330;48.816;9.278;2024-01-30T03:45:17;2.70;99.90
20345;DHT22;10330;48.816;9.278;2024-01-30T03:47:45;2.70;99.90
20345;DHT22;10330;48.816;9.278;2024-01-30T03:50:11;2.60;99.90
20345;DHT22;10330;48.816;9.278;2024-01-30T03:52:38;2.60;99.90
20345;DHT22;10330;48.816;9.278;2024-01-30T03:55:05;2.60;99.90
20345;DHT22;10330;48.816;9.278;2024-01-30T03:57:32;2.50;99.90
20345;DHT22;10330;48.816;9.278;2024-01-30T03:59:58;2.50;99.90
20345;DHT22;10330;48.816;9.278;2024-01-30T04:02:24;2.40;99.90
20345;DHT22;10330;48.816;9.278;2024-01-30T04:04:50;2.40;99.90
20345;DHT22;10330;48.816;9.278;2024-01-30T04:07:16;2.40;99.90
20345;DHT22;10330;48.816;9.278;2024-01-30T04:09:43;2.40;99.90
20345;DHT22;10330;48.816;9.278;2024-01-30T04:12:09;2.40;99.90
20345;DHT22;10330;48.816;9.278;2024-01-30T04:14:35;2.50;99.90
20345;DHT22;10330;48.816;9.278;2024-01-30T04:17:01;2.50;99.90
20345;DHT22;10330;48.816;9.278;2024-01-30T04:19:27;2.50;99.90
20345;DHT22;10330;48.816;9.278;2024-01-30T04:21:54;2.40;99.90
20345;DHT22;10330;48.816;9.278;2024-01-30T04:24:20;2.50;99.90
20345;DHT22;10330;48.816;9.278;2024-01-30T04:26:46;2.40;99.90
20345;DHT22;10330;48.816;9.278;2024-01-30T04:29:12;2.40;99.90
20345;DHT22;10330;48.816;9.278;2024-01-30T04:31:38;2.30;99.90
20345;DHT22;10330;48.816;9.278;2024-01-30T04:34:05;2.30;99.90
20345;DHT22;10330;48.816;9.278;2024-01-30T04:36:31;2.20;99.90
20345;DHT22;10330;48.816;9.278;2024-01-30T04:38:57;2.20;99.90
20345;DHT22;10330;48.816;9.278;2024-01-30T04:41:24;2.20;99.90
20345;DHT22;10330;48.816;9.278;2024-01-30T04:43:50;2.10;99.90
20345;DHT22;10330;48.816;9.278;2024-01-30T04:46:16;2.00;99.90
20345;DHT22;10330;48.816;9.278;2024-01-30T04:48:42;2.00;99.90
20345;DHT22;10330;48.816;9.278;2024-01-30T04:51:08;2.00;99.90
20345;DHT22;10330;48.816;9.278;2024-01-30T04:53:35;2.00;99.90
20345;DHT22;10330;48.816;9.278;2024-01-30T04:56:01;2.00;99.90
20345;DHT22;10330;48.816;9.278;2024-01-30T04:58:27;2.00;99.90
20345;DHT22;10330;48.816;9.278;2024-01-30T05:00:54;1.90;99.90
20345;DHT22;10330;48.816;9.278;2024-01-30T05:03:20;2.00;99.90
20345;DHT22;10330;48.816;9.278;2024-01-30T05:05:48;2.00;99.90
20345;DHT22;10330;48.816;9.278;2024-01-30T05:08:15;1.90;99.90
20345;DHT22;10330;48.816;9.278;2024-01-30T05:10:41;2.00;99.90
20345;DHT22;10330;48.816;9.278;2024-01-30T05:13:07;2.00;99.90
20345;DHT22;10330;48.816;9.278;2024-01-30T05:15:34;2.00;99.90
20345;DHT22;10330;48.816;9.278;2024-01-30T05:18:00;2.00;99.90
20345;DHT22;10330;48.816;9.278;2024-01-30T05:20:26;2.00;99.90
20345;DHT22;10330;48.816;9.278;2024-01-30T05:22:54;2.00;99.90
20345;DHT22;10330;48.816;9.278;2024-01-30T05:25:21;2.00;99.90
20345;DHT22;10330;48.816;9.278;2024-01-30T05:27:47;2.00;99.90
20345;DHT22;10330;48.816;9.278;2024-01-30T05:30:14;2.00;99.90
20345;DHT22;10330;48.816;9.278;2024-01-30T05:32:40;2.00;99.90
20345;DHT22;10330;48.816;9.278;2024-01-30T05:35:07;2.00;99.90
20345;DHT22;10330;48.816;9.278;2024-01-30T05:37:36;2.00;99.90
20345;DHT22;10330;48.816;9.278;2024-01-30T05:40:02;2.00;99.90
20345;DHT22;10330;48.816;9.278;2024-01-30T05:42:30;2.00;99.90
20345;DHT22;10330;48.816;9.278;2024-01-30T05:44:56;2.00;99.90
20345;DHT22;10330;48.816;9.278;2024-01-30T05:47:23;1.90;99.90
20345;DHT22;10330;48.816;9.278;2024-01-30T05:49:49;1.90;99.90
20345;DHT22;10330;48.816;9.278;2024-01-30T05:52:16;1.90;99.90
20345;DHT22;10330;48.816;9.278;2024-01-30T05:54:45;2.00;99.90
20345;DHT22;10330;48.816;9.278;2024-01-30T05:57:11;2.00;99.90
20345;DHT22;10330;48.816;9.278;2024-01-30T05:59:37;1.90;99.90
20345;DHT22;10330;48.816;9.278;2024-01-30T06:02:04;1.90;99.90
20345;DHT22;10330;48.816;9.278;2024-01-30T06:04:30;1.90;99.90
20345;DHT22;10330;48.816;9.278;2024-01-30T06:06:56;2.00;99.90
20345;DHT22;10330;48.816;9.278;2024-01-30T06:09:23;2.10;99.90
20345;DHT22;10330;48.816;9.278;2024-01-30T06:11:49;2.10;99.90
20345;DHT22;10330;48.816;9.278;2024-01-30T06:14:15;2.10;99.90
20345;DHT22;10330;48.816;9.278;2024-01-30T06:16:41;2.00;99.90
20345;DHT22;10330;48.816;9.278;2024-01-30T06:19:08;1.90;99.90
20345;DHT22;10330;48.816;9.278;2024-01-30T06:21:34;1.90;99.90
20345;DHT22;10330;48.816;9.278;2024-01-30T06:24:03;1.90;99.90
20345;DHT22;10330;48.816;9.278;2024-01-30T06:26:29;2.00;99.90
20345;DHT22;10330;48.816;9.278;2024-01-30T06:28:55;2.00;99.90
20345;DHT22;10330;48.816;9.278;2024-01-30T06:31:21;2.00;99.90
20345;DHT22;10330;48.816;9.278;2024-01-30T06:33:47;1.90;99.90
20345;DHT22;10330;48.816;9.278;2024-01-30T06:36:14;1.90;99.90
20345;DHT22;10330;48.816;9.278;2024-01-30T06:38:41;1.90;99.90
20345;DHT22;10330;48.816;9.278;2024-01-30T06:41:07;2.00;99.90
20345;DHT22;10330;48.816;9.278;2024-01-30T06:43:33;2.00;99.90
20345;DHT22;10330;48.816;9.278;2024-01-30T06:45:59;2.00;99.90
20345;DHT22;10330;48.816;9.278;2024-01-30T06:48:26;2.00;99.90
20345;DHT22;10330;48.816;9.278;2024-01-30T06:50:57;2.00;99.90
20345;DHT22;10330;48.816;9.278;2024-01-30T06:53:23;2.00;99.90
20345;DHT22;10330;48.816;9.278;2024-01-30T06:55:51;2.00;99.90
20345;DHT22;10330;48.816;9.278;2024-01-30T06:58:18;2.00;99.90
20345;DHT22;10330;48.816;9.278;2024-01-30T07:00:44;2.00;99.90
20345;DHT22;10330;48.816;9.278;2024-01-30T07:03:11;2.00;99.90
20345;DHT22;10330;48.816;9.278;2024-01-30T07:05:37;2.00;99.90
20345;DHT22;10330;48.816;9.278;2024-01-30T07:08:04;1.90;99.90
20345;DHT22;10330;48.816;9.278;2024-01-30T07:10:30;2.00;99.90
20345;DHT22;10330;48.816;9.278;2024-01-30T07:12:57;2.00;99.90
20345;DHT22;10330;48.816;9.278;2024-01-30T07:15:23;2.00;99.90
20345;DHT22;10330;48.816;9.278;2024-01-30T07:17:49;2.10;99.90
20345;DHT22;10330;48.816;9.278;2024-01-30T07:20:20;2.10;99.90
20345;DHT22;10330;48.816;9.278;2024-01-30T07:22:46;2.10;99.90
20345;DHT22;10330;48.816;9.278;2024-01-30T07:25:13;2.10;99.90
20345;DHT22;10330;48.816;9.278;2024-01-30T07:27:39;2.20;99.90
20345;DHT22;10330;48.816;9.278;2024-01-30T07:30:07;2.10;99.90
20345;DHT22;10330;48.816;9.278;2024-01-30T07:32:33;2.20;99.90
20345;DHT22;10330;48.816;9.278;2024-01-30T07:34:59;2.20;99.90
20345;DHT22;10330;48.816;9.278;2024-01-30T07:37:25;2.20;99.90
20345;DHT22;10330;48.816;9.278;2024-01-30T07:39:51;2.20;99.90
20345;DHT22;10330;48.816;9.278;2024-01-30T07:42:18;2.20;99.90
20345;DHT22;10330;48.816;9.278;2024-01-30T07:44:44;2.30;99.90
20345;DHT22;10330;48.816;9.278;2024-01-30T07:47:10;2.30;99.90
20345;DHT22;10330;48.816;9.278;2024-01-30T07:49:39;2.40;99.90
20345;DHT22;10330;48.816;9.278;2024-01-30T07:52:06;2.50;99.90
20345;DHT22;10330;48.816;9.278;2024-01-30T07:54:33;2.60;99.90
20345;DHT22;10330;48.816;9.278;2024-01-30T07:57:00;2.60;99.90
20345;DHT22;10330;48.816;9.278;2024-01-30T07:59:26;2.60;99.90
20345;DHT22;10330;48.816;9.278;2024-01-30T08:01:53;2.70;99.90
20345;DHT22;10330;48.816;9.278;2024-01-30T08:04:19;2.70;99.90
20345;DHT22;10330;48.816;9.278;2024-01-30T08:06:45;2.80;99.90
20345;DHT22;10330;48.816;9.278;2024-01-30T08:09:14;2.80;99.90
20345;DHT22;10330;48.816;9.278;2024-01-30T08:11:40;2.90;99.90
20345;DHT22;10330;48.816;9.278;2024-01-30T08:14:06;2.90;99.90
20345;DHT22;10330;48.816;9.278;2024-01-30T08:16:32;3.00;99.90
20345;DHT22;10330;48.816;9.278;2024-01-30T08:18:59;3.00;99.90
20345;DHT22;10330;48.816;9.278;2024-01-30T08:21:25;3.10;99.90
20345;DHT22;10330;48.816;9.278;2024-01-30T08:23:51;3.20;99.90
20345;DHT22;10330;48.816;9.278;2024-01-30T08:26:18;3.20;99.90
20345;DHT22;10330;48.816;9.278;2024-01-30T08:28:44;3.30;99.90
20345;DHT22;10330;48.816;9.278;2024-01-30T08:31:11;3.40;99.90
20345;DHT22;10330;48.816;9.278;2024-01-30T08:33:38;3.50;99.90
20345;DHT22;10330;48.816;9.278;2024-01-30T08:36:05;3.60;99.90
20345;DHT22;10330;48.816;9.278;2024-01-30T08:38:32;3.70;99.90
20345;DHT22;10330;48.816;9.278;2024-01-30T08:40:58;3.70;99.90
20345;DHT22;10330;48.816;9.278;2024-01-30T08:43:24;3.80;99.90
20345;DHT22;10330;48.816;9.278;2024-01-30T08:45:51;3.90;99.90
20345;DHT22;10330;48.816;9.278;2024-01-30T08:48:17;3.90;99.90
20345;DHT22;10330;48.816;9.278;2024-01-30T08:50:43;4.00;99.90
20345;DHT22;10330;48.816;9.278;2024-01-30T08:53:10;4.10;99.90
20345;DHT22;10330;48.816;9.278;2024-01-30T08:55:36;4.20;99.90
20345;DHT22;10330;48.816;9.278;2024-01-30T08:58:02;4.30;99.90
20345;DHT22;10330;48.816;9.278;2024-01-30T09:00:32;4.40;99.90
20345;DHT22;10330;48.816;9.278;2024-01-30T09:02:58;4.50;99.90
20345;DHT22;10330;48.816;9.278;2024-01-30T09:05:24;4.60;99.90
20345;DHT22;10330;48.816;9.278;2024-01-30T09:07:51;4.70;99.90
20345;DHT22;10330;48.816;9.278;2024-01-30T09:10:17;4.80;99.90
20345;DHT22;10330;48.816;9.278;2024-01-30T09:12:44;4.90;99.90
20345;DHT22;10330;48.816;9.278;2024-01-30T09:15:10;5.00;99.90
20345;DHT22;10330;48.816;9.278;2024-01-30T09:17:37;5.10;99.90
20345;DHT22;10330;48.816;9.278;2024-01-30T09:20:04;5.20;99.90
20345;DHT22;10330;48.816;9.278;2024-01-30T09:22:30;5.30;99.90
20345;DHT22;10330;48.816;9.278;2024-01-30T09:24:57;5.40;99.90
20345;DHT22;10330;48.816;9.278;2024-01-30T09:27:24;5.50;99.90
20345;DHT22;10330;48.816;9.278;2024-01-30T09:29:50;5.60;99.90
20345;DHT22;10330;48.816;9.278;2024-01-30T09:32:16;5.70;99.90
20345;DHT22;10330;48.816;9.278;2024-01-30T09:34:43;5.80;99.90
20345;DHT22;10330;48.816;9.278;2024-01-30T09:37:10;5.90;99.90
20345;DHT22;10330;48.816;9.278;2024-01-30T09:39:37;6.00;99.90
20345;DHT22;10330;48.816;9.278;2024-01-30T09:42:26;6.10;99.90
20345;DHT22;10330;48.816;9.278;2024-01-30T09:44:54;6.30;99.90
20345;DHT22;10330;48.816;9.278;2024-01-30T09:47:20;6.50;99.90
20345;DHT22;10330;48.816;9.278;2024-01-30T09:49:47;6.70;99.90
20345;DHT22;10330;48.816;9.278;2024-01-30T09:52:14;6.80;99.90
20345;DHT22;10330;48.816;9.278;2024-01-30T09:54:41;7.00;99.90
20345;DHT22;10330;48.816;9.278;2024-01-30T09:57:08;7.10;99.90
20345;DHT22;10330;48.816;9.278;2024-01-30T09:59:35;7.20;99.90
20345;DHT22;10330;48.816;9.278;2024-01-30T10:02:04;7.30;99.90
20345;DHT22;10330;48.816;9.278;2024-01-30T10:04:31;7.40;99.90
20345;DHT22;10330;48.816;9.278;2024-01-30T10:07:01;7.40;99.90
20345;DHT22;10330;48.816;9.278;2024-01-30T10:09:27;7.50;99.90
20345;DHT22;10330;48.816;9.278;2024-01-30T10:11:53;7.60;99.90
20345;DHT22;10330;48.816;9.278;2024-01-30T10:14:20;7.80;99.90
20345;DHT22;10330;48.816;9.278;2024-01-30T10:16:46;7.90;99.90
20345;DHT22;10330;48.816;9.278;2024-01-30T10:19:13;8.10;99.90
20345;DHT22;10330;48.816;9.278;2024-01-30T10:21:39;8.30;99.90
20345;DHT22;10330;48.816;9.278;2024-01-30T10:24:06;8.40;99.90
20345;DHT22;10330;48.816;9.278;2024-01-30T10:26:32;8.50;99.90
20345;DHT22;10330;48.816;9.278;2024-01-30T10:29:00;8.70;99.90
20345;DHT22;10330;48.816;9.278;2024-01-30T10:31:26;8.80;99.90
20345;DHT22;10330;48.816;9.278;2024-01-30T10:33:53;8.90;99.90
20345;DHT22;10330;48.816;9.278;2024-01-30T10:36:21;9.10;99.90
20345;DHT22;10330;48.816;9.278;2024-01-30T10:38:51;9.20;99.90
20345;DHT22;10330;48.816;9.278;2024-01-30T10:41:24;9.20;99.90
20345;DHT22;10330;48.816;9.278;2024-01-30T10:44:05;9.30;99.90
20345;DHT22;10330;48.816;9.278;2024-01-30T10:46:36;9.40;99.90
20345;DHT22;10330;48.816;9.278;2024-01-30T10:49:04;9.40;99.90
20345;DHT22;10330;48.816;9.278;2024-01-30T10:51:31;9.30;99.90
20345;DHT22;10330;48.816;9.278;2024-01-30T10:53:58;9.40;99.90
20345;DHT22;10330;48.816;9.278;2024-01-30T10:56:25;9.50;99.90
20345;DHT22;10330;48.816;9.278;2024-01-30T10:58:52;9.60;99.90
20345;DHT22;10330;48.816;9.278;2024-01-30T11:01:22;9.70;99.90
20345;DHT22;10330;48.816;9.278;2024-01-30T11:03:52;9.60;99.90
20345;DHT22;10330;48.816;9.278;2024-01-30T11:06:23;9.70;99.90
20345;DHT22;10330;48.816;9.278;2024-01-30T11:09:03;9.80;99.90
20345;DHT22;10330;48.816;9.278;2024-01-30T11:11:56;9.90;99.90
20345;DHT22;10330;48.816;9.278;2024-01-30T11:14:30;10.00;99.90
20345;DHT22;10330;48.816;9.278;2024-01-30T11:16:59;10.00;99.90
20345;DHT22;10330;48.816;9.278;2024-01-30T11:19:26;10.10;99.90
20345;DHT22;10330;48.816;9.278;2024-01-30T11:21:56;10.20;99.90
20345;DHT22;10330;48.816;9.278;2024-01-30T11:24:24;10.30;99.90
20345;DHT22;10330;48.816;9.278;2024-01-30T11:26:56;10.40;99.90
20345;DHT22;10330;48.816;9.278;2024-01-30T11:29:30;10.40;99.90
20345;DHT22;10330;48.816;9.278;2024-01-30T11:31:58;10.50;99.90
20345;DHT22;10330;48.816;9.278;2024-01-30T11:34:24;10.60;99.90
20345;DHT22;10330;48.816;9.278;2024-01-30T11:36:56;10.60;99.90
20345;DHT22;10330;48.816;9.278;2024-01-30T11:39:26;10.70;99.90
20345;DHT22;10330;48.816;9.278;2024-01-30T11:41:53;10.60;99.90
20345;DHT22;10330;48.816;9.278;2024-01-30T11:44:20;10.70;99.90
20345;DHT22;10330;48.816;9.278;2024-01-30T11:46:48;10.70;99.90
20345;DHT22;10330;48.816;9.278;2024-01-30T11:49:15;10.70;99.90
20345;DHT22;10330;48.816;9.278;2024-01-30T11:51:42;10.70;99.90
20345;DHT22;10330;48.816;9.278;2024-01-30T11:54:09;10.80;99.90
20345;DHT22;10330;48.816;9.278;2024-01-30T11:56:37;10.90;99.90
20345;DHT22;10330;48.816;9.278;2024-01-30T11:59:03;11.00;99.90
20345;DHT22;10330;48.816;9.278;2024-01-30T12:01:29;11.00;99.90
20345;DHT22;10330;48.816;9.278;2024-01-30T12:03:58;11.10;99.90
20345;DHT22;10330;48.816;9.278;2024-01-30T12:06:25;11.20;99.90
20345;DHT22;10330;48.816;9.278;2024-01-30T12:08:57;11.20;99.90
20345;DHT22;10330;48.816;9.278;2024-01-30T12:11:34;11.30;99.90
20345;DHT22;10330;48.816;9.278;2024-01-30T12:14:09;11.30;99.90
20345;DHT22;10330;48.816;9.278;2024-01-30T12:16:36;11.40;99.90
20345;DHT22;10330;48.816;9.278;2024-01-30T12:19:02;11.20;99.90
20345;DHT22;10330;48.816;9.278;2024-01-30T12:21:29;11.10;99.90
20345;DHT22;10330;48.816;9.278;2024-01-30T12:23:56;11.10;99.90
20345;DHT22;10330;48.816;9.278;2024-01-30T12:26:24;11.20;99.90
20345;DHT22;10330;48.816;9.278;2024-01-30T12:28:56;11.20;99.90
20345;DHT22;10330;48.816;9.278;2024-01-30T12:31:28;11.30;99.90
20345;DHT22;10330;48.816;9.278;2024-01-30T12:33:55;11.40;99.90
20345;DHT22;10330;48.816;9.278;2024-01-30T12:36:21;11.50;99.90
20345;DHT22;10330;48.816;9.278;2024-01-30T12:38:48;11.70;99.90
20345;DHT22;10330;48.816;9.278;2024-01-30T12:41:15;11.70;99.90
20345;DHT22;10330;48.816;9.278;2024-01-30T12:43:42;11.80;99.90
20345;DHT22;10330;48.816;9.278;2024-01-30T12:46:08;11.80;99.90
20345;DHT22;10330;48.816;9.278;2024-01-30T12:48:34;11.90;99.90
20345;DHT22;10330;48.816;9.278;2024-01-30T12:51:01;11.90;99.90
20345;DHT22;10330;48.816;9.278;2024-01-30T12:53:27;12.00;99.90
20345;DHT22;10330;48.816;9.278;2024-01-30T12:55:53;12.00;99.90
20345;DHT22;10330;48.816;9.278;2024-01-30T12:58:20;12.20;99.90
20345;DHT22;10330;48.816;9.278;2024-01-30T13:00:46;12.50;99.90
20345;DHT22;10330;48.816;9.278;2024-01-30T13:03:13;12.80;99.90
20345;DHT22;10330;48.816;9.278;2024-01-30T13:05:39;13.10;99.90
20345;DHT22;10330;48.816;9.278;2024-01-30T13:08:05;13.20;99.90
20345;DHT22;10330;48.816;9.278;2024-01-30T13:10:32;13.40;99.90
20345;DHT22;10330;48.816;9.278;2024-01-30T13:12:58;13.30;99.90
20345;DHT22;10330;48.816;9.278;2024-01-30T13:15:24;13.30;99.90
20345;DHT22;10330;48.816;9.278;2024-01-30T13:17:51;13.40;99.90
20345;DHT22;10330;48.816;9.278;2024-01-30T13:20:20;13.40;99.90
20345;DHT22;10330;48.816;9.278;2024-01-30T13:22:48;13.40;99.90
20345;DHT22;10330;48.816;9.278;2024-01-30T13:25:15;13.30;99.90
20345;DHT22;10330;48.816;9.278;2024-01-30T13:27:42;13.60;99.90
20345;DHT22;10330;48.816;9.278;2024-01-30T13:30:09;14.20;99.90
20345;DHT22;10330;48.816;9.278;2024-01-30T13:32:36;14.80;99.90
20345;DHT22;10330;48.816;9.278;2024-01-30T13:35:02;15.20;99.90
20345;DHT22;10330;48.816;9.278;2024-01-30T13:37:30;15.50;99.90
20345;DHT22;10330;48.816;9.278;2024-01-30T13:39:56;15.30;99.90
20345;DHT22;10330;48.816;9.278;2024-01-30T13:42:22;15.00;99.90
20345;DHT22;10330;48.816;9.278;2024-01-30T13:44:49;14.90;99.90
20345;DHT22;10330;48.816;9.278;2024-01-30T13:47:17;14.70;99.90
20345;DHT22;10330;48.816;9.278;2024-01-30T13:49:45;14.30;99.90
20345;DHT22;10330;48.816;9.278;2024-01-30T13:52:11;14.10;99.90
20345;DHT22;10330;48.816;9.278;2024-01-30T13:54:37;13.90;99.90
20345;DHT22;10330;48.816;9.278;2024-01-30T13:57:04;13.70;99.90
20345;DHT22;10330;48.816;9.278;2024-01-30T13:59:30;13.50;99.90
20345;DHT22;10330;48.816;9.278;2024-01-30T14:01:56;13.40;99.90
20345;DHT22;10330;48.816;9.278;2024-01-30T14:04:23;13.40;99.90
20345;DHT22;10330;48.816;9.278;2024-01-30T14:06:49;13.20;99.90
20345;DHT22;10330;48.816;9.278;2024-01-30T14:09:15;13.10;99.90
20345;DHT22;10330;48.816;9.278;2024-01-30T14:11:42;13.10;99.90
20345;DHT22;10330;48.816;9.278;2024-01-30T14:14:09;13.00;99.90
20345;DHT22;10330;48.816;9.278;2024-01-30T14:16:35;13.00;99.90
20345;DHT22;10330;48.816;9.278;2024-01-30T14:19:02;12.90;99.90
20345;DHT22;10330;48.816;9.278;2024-01-30T14:21:28;12.80;99.90
20345;DHT22;10330;48.816;9.278;2024-01-30T14:23:55;12.80;99.90
20345;DHT22;10330;48.816;9.278;2024-01-30T14:26:21;12.70;99.90
20345;DHT22;10330;48.816;9.278;2024-01-30T14:28:48;12.60;99.90
20345;DHT22;10330;48.816;9.278;2024-01-30T14:31:14;12.50;99.90
20345;DHT22;10330;48.816;9.278;2024-01-30T14:33:40;12.40;99.90
20345;DHT22;10330;48.816;9.278;2024-01-30T14:36:07;12.30;99.90
20345;DHT22;10330;48.816;9.278;2024-01-30T14:38:34;12.20;99.90
20345;DHT22;10330;48.816;9.278;2024-01-30T14:41:00;12.10;99.90
20345;DHT22;10330;48.816;9.278;2024-01-30T14:43:26;11.90;99.90
20345;DHT22;10330;48.816;9.278;2024-01-30T14:45:52;11.80;99.90
20345;DHT22;10330;48.816;9.278;2024-01-30T14:48:19;11.70;99.90
20345;DHT22;10330;48.816;9.278;2024-01-30T14:50:45;11.70;99.90
20345;DHT22;10330;48.816;9.278;2024-01-30T14:53:11;11.60;99.90
20345;DHT22;10330;48.816;9.278;2024-01-30T14:55:37;11.50;99.90
20345;DHT22;10330;48.816;9.278;2024-01-30T14:58:04;11.40;99.90
20345;DHT22;10330;48.816;9.278;2024-01-30T15:00:30;11.30;99.90
20345;DHT22;10330;48.816;9.278;2024-01-30T15:02:56;11.20;99.90
20345;DHT22;10330;48.816;9.278;2024-01-30T15:05:23;11.20;99.90
20345;DHT22;10330;48.816;9.278;2024-01-30T15:07:49;11.10;99.90
20345;DHT22;10330;48.816;9.278;2024-01-30T15:10:15;11.10;99.90
20345;DHT22;10330;48.816;9.278;2024-01-30T15:12:42;11.00;99.90
20345;DHT22;10330;48.816;9.278;2024-01-30T15:15:08;11.00;99.90
20345;DHT22;10330;48.816;9.278;2024-01-30T15:17:34;10.90;99.90
20345;DHT22;10330;48.816;9.278;2024-01-30T15:20:01;10.90;99.90
20345;DHT22;10330;48.816;9.278;2024-01-30T15:22:27;10.80;99.90
20345;DHT22;10330;48.816;9.278;2024-01-30T15:24:53;10.70;99.90
20345;DHT22;10330;48.816;9.278;2024-01-30T15:27:20;10.60;99.90
20345;DHT22;10330;48.816;9.278;2024-01-30T15:29:47;10.60;99.90
20345;DHT22;10330;48.816;9.278;2024-01-30T15:32:13;10.50;99.90
20345;DHT22;10330;48.816;9.278;2024-01-30T15:34:39;10.50;99.90
20345;DHT22;10330;48.816;9.278;2024-01-30T15:37:06;10.40;99.90
20345;DHT22;10330;48.816;9.278;2024-01-30T15:39:32;10.40;99.90
20345;DHT22;10330;48.816;9.278;2024-01-30T15:41:58;10.30;99.90
20345;DHT22;10330;48.816;9.278;2024-01-30T15:44:25;10.20;99.90